createdAt,value
2017-10-30T00:00:35.326Z,6.5
2017-10-30T00:01:36.935Z,6.5
2017-10-30T00:02:38.538Z,6.4
2017-10-30T00:03:40.146Z,6.5
2017-10-30T00:04:41.747Z,6.4
2017-10-30T00:05:43.358Z,6.4
2017-10-30T00:06:44.959Z,6.4
2017-10-30T00:07:46.566Z,6.3
2017-10-30T00:08:48.172Z,6.3
2017-10-30T00:09:49.773Z,6.4
2017-10-30T00:10:51.377Z,6.4
2017-10-30T00:11:52.985Z,6.4
2017-10-30T00:12:54.586Z,6.5
2017-10-30T00:13:56.193Z,6.4
2017-10-30T00:14:57.792Z,6.4
2017-10-30T00:15:59.402Z,6.4
2017-10-30T00:17:01.005Z,6.4
2017-10-30T00:18:02.615Z,6.4
2017-10-30T00:19:04.212Z,6.4
2017-10-30T00:20:05.824Z,6.3
2017-10-30T00:21:07.424Z,6.3
2017-10-30T00:22:09.032Z,6.2
2017-10-30T00:23:10.634Z,6.2
2017-10-30T00:24:12.239Z,6.1
2017-10-30T00:25:13.838Z,6.2
2017-10-30T00:26:15.447Z,6.2
2017-10-30T00:27:17.047Z,6.3
2017-10-30T00:28:18.655Z,6.4
2017-10-30T00:29:20.254Z,6.4
2017-10-30T00:30:21.860Z,6.4
2017-10-30T00:31:23.466Z,6.3
2017-10-30T00:32:25.069Z,6.4
2017-10-30T00:33:26.678Z,6.3
2017-10-30T00:34:28.280Z,6.2
2017-10-30T00:35:29.885Z,6.4
2017-10-30T00:36:31.483Z,6.4
2017-10-30T00:37:33.089Z,6.3
2017-10-30T00:38:34.691Z,6.3
2017-10-30T00:39:36.300Z,6.3
2017-10-30T00:40:37.900Z,6.2
2017-10-30T00:41:39.510Z,6.2
2017-10-30T00:42:41.110Z,6.1
2017-10-30T00:43:42.716Z,6.2
2017-10-30T00:44:44.314Z,6.1
2017-10-30T00:45:45.922Z,6.0
2017-10-30T00:46:47.520Z,6.0
2017-10-30T00:47:49.125Z,6.0
2017-10-30T00:48:50.735Z,6.0
2017-10-30T00:49:52.339Z,5.9
2017-10-30T00:50:53.941Z,5.9
2017-10-30T00:51:55.544Z,5.9
2017-10-30T00:52:57.153Z,5.9
2017-10-30T00:53:58.761Z,5.9
2017-10-30T00:55:00.362Z,5.8
2017-10-30T00:56:01.965Z,5.8
2017-10-30T00:57:03.574Z,5.8
2017-10-30T00:58:05.180Z,5.8
2017-10-30T00:59:06.778Z,5.8
2017-10-30T01:00:08.380Z,5.8
2017-10-30T01:01:09.986Z,5.8
2017-10-30T01:02:11.592Z,5.8
2017-10-30T01:03:13.194Z,5.7
2017-10-30T01:04:14.803Z,5.7
2017-10-30T01:05:16.402Z,5.8
2017-10-30T01:06:18.009Z,5.7
2017-10-30T01:07:19.613Z,5.6
2017-10-30T01:08:21.220Z,5.7
2017-10-30T01:09:22.821Z,5.7
2017-10-30T01:10:24.428Z,5.7
2017-10-30T01:11:26.035Z,5.7
2017-10-30T01:12:27.640Z,5.7
2017-10-30T01:13:29.243Z,5.6
2017-10-30T01:14:30.844Z,5.7
2017-10-30T01:15:32.453Z,5.7
2017-10-30T01:16:34.057Z,5.8
2017-10-30T01:17:35.657Z,5.7
2017-10-30T01:18:37.257Z,5.7
2017-10-30T01:19:38.864Z,5.6
2017-10-30T01:20:40.470Z,5.7
2017-10-30T01:21:42.071Z,5.7
2017-10-30T01:22:43.679Z,5.7
2017-10-30T01:23:45.284Z,5.6
2017-10-30T01:24:46.893Z,5.6
2017-10-30T01:25:48.492Z,5.5
2017-10-30T01:26:50.100Z,5.5
2017-10-30T01:27:51.700Z,5.5
2017-10-30T01:28:53.299Z,5.4
2017-10-30T01:29:54.902Z,5.5
2017-10-30T01:30:56.505Z,5.5
2017-10-30T01:31:58.115Z,5.4
2017-10-30T01:32:59.721Z,5.4
2017-10-30T01:34:01.322Z,5.4
2017-10-30T01:35:02.925Z,5.4
2017-10-30T01:36:04.524Z,5.3
2017-10-30T01:37:06.126Z,5.4
2017-10-30T01:38:07.734Z,5.3
2017-10-30T01:39:09.338Z,5.2
2017-10-30T01:40:10.947Z,5.3
2017-10-30T01:41:12.543Z,5.2
2017-10-30T01:42:14.151Z,5.3
2017-10-30T01:43:15.754Z,5.2
2017-10-30T01:44:17.357Z,5.3
2017-10-30T01:45:18.976Z,5.2
2017-10-30T01:46:20.567Z,5.2
2017-10-30T01:47:22.166Z,5.2
2017-10-30T01:48:23.773Z,5.2
2017-10-30T01:49:25.378Z,5.2
2017-10-30T01:50:26.980Z,5.1
2017-10-30T01:51:28.580Z,5.1
2017-10-30T01:52:30.179Z,5.0
2017-10-30T01:53:31.786Z,5.1
2017-10-30T01:54:33.391Z,5.1
2017-10-30T01:55:34.998Z,5.1
2017-10-30T01:56:36.597Z,5.1
2017-10-30T01:57:38.205Z,5.1
2017-10-30T01:58:39.806Z,5.0
2017-10-30T01:59:41.411Z,5.0
2017-10-30T02:00:43.011Z,5.1
2017-10-30T02:01:44.615Z,5.0
2017-10-30T02:02:46.221Z,5.0
2017-10-30T02:03:47.820Z,5.0
2017-10-30T02:04:49.429Z,4.9
2017-10-30T02:05:51.027Z,4.9
2017-10-30T02:06:52.636Z,5.0
2017-10-30T02:07:54.237Z,4.9
2017-10-30T02:08:55.839Z,4.9
2017-10-30T02:09:57.446Z,4.9
2017-10-30T02:10:59.045Z,4.9
2017-10-30T02:12:00.647Z,5.0
2017-10-30T02:13:02.255Z,4.9
2017-10-30T02:14:03.863Z,4.9
2017-10-30T02:15:05.463Z,5.0
2017-10-30T02:16:07.067Z,5.0
2017-10-30T02:17:08.673Z,5.0
2017-10-30T02:18:10.279Z,5.0
2017-10-30T02:19:11.885Z,5.1
2017-10-30T02:20:13.494Z,5.0
2017-10-30T02:21:15.100Z,5.0
2017-10-30T02:22:16.700Z,5.1
2017-10-30T02:23:18.302Z,5.0
2017-10-30T02:24:19.910Z,5.1
2017-10-30T02:25:21.512Z,5.1
2017-10-30T02:26:23.121Z,5.1
2017-10-30T02:27:24.721Z,5.1
2017-10-30T02:28:26.329Z,5.0
2017-10-30T02:29:27.932Z,5.1
2017-10-30T02:30:29.537Z,5.0
2017-10-30T02:31:31.138Z,5.0
2017-10-30T02:32:32.744Z,5.1
2017-10-30T02:33:34.345Z,5.1
2017-10-30T02:34:35.951Z,5.1
2017-10-30T02:35:37.552Z,5.1
2017-10-30T02:36:39.156Z,5.0
2017-10-30T02:37:40.762Z,5.0
2017-10-30T02:38:42.371Z,5.1
2017-10-30T02:39:43.978Z,5.1
2017-10-30T02:40:45.583Z,5.1
2017-10-30T02:41:47.192Z,5.2
2017-10-30T02:42:48.788Z,5.2
2017-10-30T02:43:50.398Z,5.2
2017-10-30T02:44:51.998Z,5.2
2017-10-30T02:45:53.604Z,5.2
2017-10-30T02:46:55.203Z,5.2
2017-10-30T02:47:56.819Z,5.2
2017-10-30T02:48:58.413Z,5.1
2017-10-30T02:50:00.026Z,5.1
2017-10-30T02:51:01.632Z,5.1
2017-10-30T02:52:03.223Z,5.1
2017-10-30T02:53:04.822Z,5.1
2017-10-30T02:54:06.428Z,5.1
2017-10-30T02:55:08.035Z,5.1
2017-10-30T02:56:09.636Z,5.1
2017-10-30T02:57:11.244Z,5.0
2017-10-30T02:58:12.849Z,5.0
2017-10-30T02:59:14.453Z,5.0
2017-10-30T03:00:16.059Z,4.9
2017-10-30T03:01:17.657Z,5.0
2017-10-30T03:02:19.260Z,4.8
2017-10-30T03:03:20.869Z,4.9
2017-10-30T03:04:22.468Z,4.8
2017-10-30T03:05:24.075Z,4.8
2017-10-30T03:06:25.673Z,4.8
2017-10-30T03:07:27.279Z,4.7
2017-10-30T03:08:28.879Z,4.7
2017-10-30T03:09:30.481Z,4.7
2017-10-30T03:10:32.091Z,4.7
2017-10-30T03:11:33.697Z,4.7
2017-10-30T03:12:35.309Z,4.7
2017-10-30T03:13:36.900Z,4.6
2017-10-30T03:14:38.505Z,4.6
2017-10-30T03:15:40.141Z,4.7
2017-10-30T03:16:41.712Z,4.7
2017-10-30T03:17:43.313Z,4.8
2017-10-30T03:18:44.920Z,4.9
2017-10-30T03:19:46.521Z,4.9
2017-10-30T03:20:48.127Z,4.8
2017-10-30T03:21:49.728Z,4.7
2017-10-30T03:22:51.333Z,4.8
2017-10-30T03:23:52.940Z,4.7
2017-10-30T03:24:54.540Z,4.7
2017-10-30T03:25:56.148Z,4.7
2017-10-30T03:26:57.751Z,4.7
2017-10-30T03:27:59.361Z,4.7
2017-10-30T03:29:00.955Z,4.6
2017-10-30T03:30:02.562Z,4.7
2017-10-30T03:31:04.162Z,4.7
2017-10-30T03:32:05.762Z,4.6
2017-10-30T03:33:07.363Z,4.6
2017-10-30T03:34:08.968Z,4.6
2017-10-30T03:35:10.574Z,4.6
2017-10-30T03:36:12.179Z,4.6
2017-10-30T03:37:13.780Z,4.6
2017-10-30T03:38:15.384Z,4.7
2017-10-30T03:39:16.989Z,4.6
2017-10-30T03:40:18.593Z,4.5
2017-10-30T03:41:20.200Z,4.6
2017-10-30T03:42:21.803Z,4.6
2017-10-30T03:43:23.402Z,4.6
2017-10-30T03:44:25.004Z,4.6
2017-10-30T03:45:27.329Z,4.6
2017-10-30T03:46:28.936Z,4.5
2017-10-30T03:47:30.535Z,4.6
2017-10-30T03:48:32.146Z,4.6
2017-10-30T03:49:33.747Z,4.7
2017-10-30T03:50:35.366Z,4.7
2017-10-30T03:51:36.964Z,4.7
2017-10-30T03:52:38.566Z,4.7
2017-10-30T03:53:40.178Z,4.7
2017-10-30T03:54:41.783Z,4.6
2017-10-30T03:55:43.388Z,4.8
2017-10-30T03:56:44.992Z,4.7
2017-10-30T03:57:46.590Z,4.8
2017-10-30T03:58:48.370Z,4.8
2017-10-30T03:59:49.973Z,4.8
2017-10-30T04:00:51.581Z,4.8
2017-10-30T04:01:53.181Z,4.9
2017-10-30T04:02:54.790Z,4.9
2017-10-30T04:03:56.386Z,4.9
2017-10-30T04:04:57.993Z,4.9
2017-10-30T04:05:59.598Z,4.9
2017-10-30T04:07:01.199Z,4.9
2017-10-30T04:08:02.806Z,4.9
2017-10-30T04:09:04.405Z,4.9
2017-10-30T04:10:06.013Z,4.9
2017-10-30T04:11:07.612Z,4.9
2017-10-30T04:12:09.213Z,5.0
2017-10-30T04:13:10.813Z,5.1
2017-10-30T04:14:12.421Z,5.1
2017-10-30T04:15:14.023Z,5.0
2017-10-30T04:16:15.632Z,5.1
2017-10-30T04:17:17.231Z,5.2
2017-10-30T04:18:18.841Z,5.1
2017-10-30T04:19:20.434Z,5.2
2017-10-30T04:20:22.041Z,5.2
2017-10-30T04:21:23.640Z,5.2
2017-10-30T04:22:25.240Z,5.2
2017-10-30T04:23:26.847Z,5.2
2017-10-30T04:24:28.450Z,5.2
2017-10-30T04:25:30.058Z,5.3
2017-10-30T04:26:31.659Z,5.4
2017-10-30T04:27:33.266Z,5.3
2017-10-30T04:28:34.870Z,5.4
2017-10-30T04:29:36.475Z,5.4
2017-10-30T04:30:38.087Z,5.4
2017-10-30T04:31:39.689Z,5.5
2017-10-30T04:32:41.288Z,5.4
2017-10-30T04:33:42.896Z,5.4
2017-10-30T04:34:44.497Z,5.5
2017-10-30T04:35:46.100Z,5.4
2017-10-30T04:36:47.706Z,5.4
2017-10-30T04:37:49.306Z,5.4
2017-10-30T04:38:50.908Z,5.4
2017-10-30T04:39:52.515Z,5.3
2017-10-30T04:40:54.115Z,5.2
2017-10-30T04:41:55.721Z,5.4
2017-10-30T04:42:57.322Z,5.3
2017-10-30T04:43:58.924Z,5.3
2017-10-30T04:45:01.112Z,5.2
2017-10-30T04:46:02.720Z,5.2
2017-10-30T04:47:05.112Z,5.2
2017-10-30T04:48:06.717Z,5.2
2017-10-30T04:49:08.317Z,5.2
2017-10-30T04:50:09.923Z,5.2
2017-10-30T04:51:11.521Z,5.1
2017-10-30T04:52:13.129Z,5.2
2017-10-30T04:53:14.728Z,5.0
2017-10-30T04:54:16.337Z,5.0
2017-10-30T04:55:17.937Z,5.0
2017-10-30T04:56:19.542Z,5.0
2017-10-30T04:57:21.147Z,5.1
2017-10-30T04:58:22.751Z,5.0
2017-10-30T04:59:24.363Z,5.1
2017-10-30T05:00:25.965Z,5.0
2017-10-30T05:01:27.595Z,5.0
2017-10-30T05:02:29.185Z,5.0
2017-10-30T05:03:30.793Z,4.9
2017-10-30T05:04:32.390Z,5.0
2017-10-30T05:05:33.998Z,4.8
2017-10-30T05:06:35.600Z,4.8
2017-10-30T05:07:37.206Z,4.7
2017-10-30T05:08:38.807Z,4.7
2017-10-30T05:09:40.412Z,4.8
2017-10-30T05:10:42.019Z,4.7
2017-10-30T05:11:43.622Z,4.8
2017-10-30T05:12:45.225Z,4.6
2017-10-30T05:13:46.826Z,4.7
2017-10-30T05:14:48.432Z,4.8
2017-10-30T05:15:50.038Z,4.6
2017-10-30T05:16:51.637Z,4.6
2017-10-30T05:17:53.241Z,4.6
2017-10-30T05:18:54.838Z,4.6
2017-10-30T05:19:56.448Z,4.5
2017-10-30T05:20:58.053Z,4.5
2017-10-30T05:21:59.655Z,4.5
2017-10-30T05:23:01.254Z,4.7
2017-10-30T05:24:02.862Z,4.6
2017-10-30T05:25:04.466Z,4.6
2017-10-30T05:26:06.068Z,4.7
2017-10-30T05:27:07.669Z,4.7
2017-10-30T05:28:09.324Z,4.8
2017-10-30T05:29:11.300Z,4.9
2017-10-30T05:30:12.885Z,4.9
2017-10-30T05:31:14.487Z,4.9
2017-10-30T05:32:16.086Z,5.0
2017-10-30T05:33:17.693Z,5.1
2017-10-30T05:34:19.293Z,5.1
2017-10-30T05:35:20.902Z,5.0
2017-10-30T05:36:22.503Z,5.1
2017-10-30T05:37:24.104Z,5.1
2017-10-30T05:38:25.707Z,5.1
2017-10-30T05:39:27.312Z,5.1
2017-10-30T05:40:28.910Z,5.1
2017-10-30T05:41:30.516Z,5.1
2017-10-30T05:42:32.122Z,5.1
2017-10-30T05:43:33.733Z,5.1
2017-10-30T05:44:35.328Z,5.2
2017-10-30T05:45:36.936Z,5.2
2017-10-30T05:46:38.539Z,5.2
2017-10-30T05:47:40.144Z,5.3
2017-10-30T05:48:41.742Z,5.2
2017-10-30T05:49:43.352Z,5.2
2017-10-30T05:50:44.953Z,5.4
2017-10-30T05:51:46.564Z,5.4
2017-10-30T05:52:48.160Z,5.4
2017-10-30T05:53:49.759Z,5.5
2017-10-30T05:54:51.368Z,5.5
2017-10-30T05:55:52.972Z,5.6
2017-10-30T05:56:54.574Z,5.5
2017-10-30T05:57:56.177Z,5.5
2017-10-30T05:58:57.782Z,5.8
2017-10-30T05:59:59.381Z,6.5
2017-10-30T06:01:00.989Z,6.5
2017-10-30T06:02:02.589Z,6.4
2017-10-30T06:03:04.196Z,6.4
2017-10-30T06:04:05.797Z,6.4
2017-10-30T06:05:07.408Z,6.3
2017-10-30T06:06:09.007Z,6.3
2017-10-30T06:07:10.613Z,6.1
2017-10-30T06:08:12.220Z,6.1
2017-10-30T06:09:13.821Z,6.0
2017-10-30T06:10:15.431Z,6.1
2017-10-30T06:11:17.030Z,5.9
2017-10-30T06:12:18.641Z,6.0
2017-10-30T06:13:20.240Z,5.9
2017-10-30T06:14:21.848Z,5.9
2017-10-30T06:15:23.448Z,5.9
2017-10-30T06:16:25.066Z,5.9
2017-10-30T06:17:26.665Z,5.8
2017-10-30T06:18:28.272Z,5.8
2017-10-30T06:19:29.883Z,5.8
2017-10-30T06:20:31.490Z,5.8
2017-10-30T06:21:33.097Z,5.8
2017-10-30T06:22:34.698Z,5.7
2017-10-30T06:23:36.306Z,5.7
2017-10-30T06:24:37.909Z,5.7
2017-10-30T06:25:39.521Z,5.7
2017-10-30T06:26:41.126Z,5.7
2017-10-30T06:27:42.735Z,5.7
2017-10-30T06:28:44.337Z,5.7
2017-10-30T06:29:45.946Z,5.7
2017-10-30T06:30:47.551Z,5.8
2017-10-30T06:31:49.160Z,5.7
2017-10-30T06:32:50.765Z,5.7
2017-10-30T06:33:52.377Z,5.7
2017-10-30T06:34:53.984Z,5.7
2017-10-30T06:35:55.586Z,5.8
2017-10-30T06:36:57.193Z,5.8
2017-10-30T06:37:58.810Z,5.7
2017-10-30T06:39:00.414Z,5.8
2017-10-30T06:40:02.017Z,5.8
2017-10-30T06:41:03.628Z,5.9
2017-10-30T06:42:05.231Z,5.8
2017-10-30T06:43:06.834Z,6.0
2017-10-30T06:44:08.444Z,6.0
2017-10-30T06:45:10.049Z,6.0
2017-10-30T06:46:11.657Z,6.0
2017-10-30T06:47:13.261Z,6.0
2017-10-30T06:48:14.875Z,6.1
2017-10-30T06:49:16.489Z,6.1
2017-10-30T06:50:18.089Z,6.1
2017-10-30T06:51:19.700Z,6.1
2017-10-30T06:52:21.303Z,6.2
2017-10-30T06:53:22.913Z,6.2
2017-10-30T06:54:24.517Z,6.3
2017-10-30T06:55:26.132Z,6.2
2017-10-30T06:56:27.737Z,6.4
2017-10-30T06:57:29.350Z,6.4
2017-10-30T06:58:30.952Z,6.4
2017-10-30T06:59:32.565Z,6.4
2017-10-30T07:00:34.169Z,6.5
2017-10-30T07:01:35.782Z,6.5
2017-10-30T07:02:37.389Z,6.5
2017-10-30T07:03:38.999Z,6.6
2017-10-30T07:04:40.605Z,6.6
2017-10-30T07:05:42.215Z,6.7
2017-10-30T07:06:43.825Z,6.6
2017-10-30T07:07:45.431Z,6.7
2017-10-30T07:08:47.044Z,6.6
2017-10-30T07:09:48.651Z,6.7
2017-10-30T07:10:50.261Z,6.7
2017-10-30T07:11:51.863Z,6.7
2017-10-30T07:12:53.476Z,6.8
2017-10-30T07:13:55.081Z,6.8
2017-10-30T07:14:56.695Z,6.9
2017-10-30T07:15:58.301Z,6.9
2017-10-30T07:16:59.914Z,7.0
2017-10-30T07:18:01.530Z,7.0
2017-10-30T07:19:03.129Z,7.1
2017-10-30T07:20:04.733Z,7.1
2017-10-30T07:21:06.345Z,7.3
2017-10-30T07:22:07.963Z,7.3
2017-10-30T07:23:09.566Z,7.4
2017-10-30T07:24:11.174Z,7.5
2017-10-30T07:25:12.784Z,7.5
2017-10-30T07:26:14.392Z,7.6
2017-10-30T07:27:15.999Z,7.5
2017-10-30T07:28:17.605Z,7.5
2017-10-30T07:29:19.222Z,7.5
2017-10-30T07:30:20.834Z,7.4
2017-10-30T07:31:22.445Z,7.4
2017-10-30T07:32:24.051Z,7.5
2017-10-30T07:33:25.663Z,7.5
2017-10-30T07:34:27.272Z,7.6
2017-10-30T07:35:28.878Z,7.6
2017-10-30T07:36:30.486Z,7.6
2017-10-30T07:37:32.102Z,7.6
2017-10-30T07:38:33.710Z,7.7
2017-10-30T07:39:35.324Z,7.7
2017-10-30T07:40:36.935Z,7.8
2017-10-30T07:41:38.541Z,7.8
2017-10-30T07:42:40.150Z,7.7
2017-10-30T07:43:41.764Z,7.8
2017-10-30T07:44:43.377Z,7.8
2017-10-30T07:45:44.985Z,7.8
2017-10-30T07:46:46.592Z,7.9
2017-10-30T07:47:48.204Z,7.9
2017-10-30T07:48:49.815Z,8.0
2017-10-30T07:49:51.419Z,8.0
2017-10-30T07:50:53.028Z,8.1
2017-10-30T07:51:54.642Z,8.1
2017-10-30T07:52:56.255Z,8.1
2017-10-30T07:53:57.858Z,8.1
2017-10-30T07:54:59.465Z,8.2
2017-10-30T07:56:01.078Z,8.3
2017-10-30T07:57:02.687Z,8.4
2017-10-30T07:58:04.296Z,8.3
2017-10-30T07:59:05.906Z,8.6
2017-10-30T08:00:07.523Z,8.6
2017-10-30T08:01:09.133Z,8.7
2017-10-30T08:02:10.742Z,8.7
2017-10-30T08:03:12.356Z,8.8
2017-10-30T08:04:13.962Z,9.0
2017-10-30T08:05:15.580Z,9.2
2017-10-30T08:06:17.191Z,9.3
2017-10-30T08:07:18.803Z,9.5
2017-10-30T08:08:20.417Z,10.1
2017-10-30T08:09:22.026Z,10.3
2017-10-30T08:10:23.638Z,10.1
2017-10-30T08:11:25.252Z,10.0
2017-10-30T08:12:26.867Z,9.9
2017-10-30T08:13:28.480Z,9.8
2017-10-30T08:14:30.093Z,9.9
2017-10-30T08:15:31.707Z,9.8
2017-10-30T08:16:33.326Z,9.8
2017-10-30T08:17:34.935Z,9.9
2017-10-30T08:18:36.551Z,9.9
2017-10-30T08:19:38.167Z,10.0
2017-10-30T08:20:39.785Z,10.2
2017-10-30T08:21:41.395Z,10.3
2017-10-30T08:22:43.013Z,10.5
2017-10-30T08:23:44.629Z,10.8
2017-10-30T08:24:46.235Z,10.9
2017-10-30T08:25:47.851Z,10.9
2017-10-30T08:26:49.467Z,11.0
2017-10-30T08:27:51.084Z,10.9
2017-10-30T08:28:52.695Z,11.1
2017-10-30T08:29:54.312Z,11.2
2017-10-30T08:30:55.921Z,11.0
2017-10-30T08:31:57.539Z,11.0
2017-10-30T08:32:59.151Z,10.9
2017-10-30T08:34:00.768Z,10.7
2017-10-30T08:35:02.379Z,11.1
2017-10-30T08:36:03.997Z,11.2
2017-10-30T08:37:05.610Z,11.2
2017-10-30T08:38:07.222Z,11.1
2017-10-30T08:39:08.832Z,11.2
2017-10-30T08:40:10.444Z,11.3
2017-10-30T08:41:12.059Z,11.4
2017-10-30T08:42:13.671Z,11.4
2017-10-30T08:43:15.291Z,11.5
2017-10-30T08:44:16.901Z,11.8
2017-10-30T08:45:18.515Z,11.8
2017-10-30T08:46:20.126Z,11.9
2017-10-30T08:47:21.744Z,11.9
2017-10-30T08:48:23.360Z,11.9
2017-10-30T08:49:24.974Z,12.0
2017-10-30T08:50:26.587Z,11.9
2017-10-30T08:51:28.207Z,12.0
2017-10-30T08:52:29.827Z,12.1
2017-10-30T08:53:31.435Z,12.2
2017-10-30T08:54:33.054Z,12.1
2017-10-30T08:55:34.671Z,12.0
2017-10-30T08:56:36.286Z,11.9
2017-10-30T08:57:37.905Z,11.7
2017-10-30T08:58:39.521Z,11.7
2017-10-30T08:59:41.130Z,11.7
2017-10-30T09:00:42.747Z,11.6
2017-10-30T09:01:44.374Z,11.7
2017-10-30T09:02:45.981Z,11.6
2017-10-30T09:03:47.593Z,11.7
2017-10-30T09:04:49.212Z,11.7
2017-10-30T09:05:50.832Z,11.6
2017-10-30T09:06:52.441Z,11.4
2017-10-30T09:07:54.056Z,11.5
2017-10-30T09:08:55.675Z,11.4
2017-10-30T09:09:57.290Z,11.5
2017-10-30T09:10:58.906Z,11.5
2017-10-30T09:12:00.525Z,11.4
2017-10-30T09:13:02.135Z,11.5
2017-10-30T09:14:03.754Z,11.5
2017-10-30T09:15:05.366Z,11.5
2017-10-30T09:16:06.979Z,11.8
2017-10-30T09:17:08.596Z,12.0
2017-10-30T09:18:10.215Z,12.0
2017-10-30T09:19:11.829Z,12.0
2017-10-30T09:20:13.448Z,12.1
2017-10-30T09:21:15.057Z,12.2
2017-10-30T09:22:16.732Z,12.0
2017-10-30T09:23:18.349Z,12.0
2017-10-30T09:24:19.964Z,12.0
2017-10-30T09:25:21.578Z,12.2
2017-10-30T09:26:23.200Z,12.0
2017-10-30T09:27:24.810Z,11.9
2017-10-30T09:28:26.429Z,12.0
2017-10-30T09:29:28.043Z,12.1
2017-10-30T09:30:29.657Z,12.2
2017-10-30T09:31:31.277Z,12.6
2017-10-30T09:32:32.897Z,12.8
2017-10-30T09:33:34.520Z,12.9
2017-10-30T09:34:36.141Z,13.5
2017-10-30T09:35:37.752Z,14.0
2017-10-30T09:36:39.372Z,14.7
2017-10-30T09:37:40.985Z,15.3
2017-10-30T09:38:42.608Z,15.7
2017-10-30T09:39:44.228Z,16.0
2017-10-30T09:40:45.843Z,16.8
2017-10-30T09:41:47.456Z,17.0
2017-10-30T09:42:49.077Z,16.9
2017-10-30T09:43:50.691Z,16.9
2017-10-30T09:44:52.310Z,16.6
2017-10-30T09:45:53.925Z,17.0
2017-10-30T09:46:55.543Z,17.0
2017-10-30T09:47:57.163Z,17.0
2017-10-30T09:48:58.784Z,16.9
2017-10-30T09:50:00.401Z,17.0
2017-10-30T09:51:02.016Z,17.2
2017-10-30T09:52:03.632Z,17.5
2017-10-30T09:53:05.263Z,17.4
2017-10-30T09:54:06.880Z,17.9
2017-10-30T09:55:08.497Z,18.4
2017-10-30T09:56:10.120Z,18.5
2017-10-30T09:57:11.734Z,18.8
2017-10-30T09:58:13.357Z,19.4
2017-10-30T09:59:14.973Z,20.1
2017-10-30T10:00:16.595Z,20.4
2017-10-30T10:01:18.219Z,20.5
2017-10-30T10:02:19.841Z,20.9
2017-10-30T10:03:21.461Z,20.8
2017-10-30T10:04:23.088Z,20.7
2017-10-30T10:05:24.701Z,20.4
2017-10-30T10:06:26.325Z,20.3
2017-10-30T10:07:27.939Z,20.3
2017-10-30T10:08:29.557Z,19.6
2017-10-30T10:09:31.184Z,19.2
2017-10-30T10:10:32.804Z,18.8
2017-10-30T10:11:34.416Z,18.1
2017-10-30T10:12:36.033Z,17.8
2017-10-30T10:13:37.656Z,17.6
2017-10-30T10:14:39.276Z,17.3
2017-10-30T10:15:40.893Z,17.1
2017-10-30T10:16:42.511Z,17.0
2017-10-30T10:17:44.133Z,17.0
2017-10-30T10:18:45.750Z,16.5
2017-10-30T10:19:47.368Z,16.3
2017-10-30T10:20:48.979Z,15.7
2017-10-30T10:21:50.601Z,15.7
2017-10-30T10:22:52.215Z,15.3
2017-10-30T10:23:53.840Z,15.2
2017-10-30T10:24:55.456Z,15.2
2017-10-30T10:25:57.070Z,15.1
2017-10-30T10:26:58.685Z,15.1
2017-10-30T10:28:00.302Z,14.9
2017-10-30T10:29:01.923Z,14.9
2017-10-30T10:30:03.538Z,14.9
2017-10-30T10:31:05.158Z,14.7
2017-10-30T10:32:06.776Z,14.8
2017-10-30T10:33:08.396Z,14.7
2017-10-30T10:34:10.006Z,14.8
2017-10-30T10:35:11.621Z,14.7
2017-10-30T10:36:13.245Z,14.8
2017-10-30T10:37:14.864Z,14.8
2017-10-30T10:38:16.493Z,14.7
2017-10-30T10:39:18.101Z,14.7
2017-10-30T10:40:19.712Z,14.6
2017-10-30T10:41:21.334Z,14.8
2017-10-30T10:42:22.950Z,14.9
2017-10-30T10:43:24.572Z,15.0
2017-10-30T10:44:26.184Z,14.9
2017-10-30T10:45:27.805Z,14.7
2017-10-30T10:46:29.418Z,14.2
2017-10-30T10:47:31.040Z,14.0
2017-10-30T10:48:32.651Z,13.9
2017-10-30T10:49:34.267Z,13.8
2017-10-30T10:50:35.881Z,13.8
2017-10-30T10:51:37.497Z,13.9
2017-10-30T10:52:39.120Z,14.0
2017-10-30T10:53:40.734Z,14.1
2017-10-30T10:54:42.347Z,14.2
2017-10-30T10:55:43.960Z,14.1
2017-10-30T10:56:45.584Z,14.4
2017-10-30T10:57:47.199Z,14.7
2017-10-30T10:58:48.822Z,15.0
2017-10-30T10:59:50.438Z,15.5
2017-10-30T11:00:52.061Z,15.4
2017-10-30T11:01:53.670Z,14.9
2017-10-30T11:02:55.292Z,14.9
2017-10-30T11:03:56.904Z,14.9
2017-10-30T11:04:58.524Z,14.8
2017-10-30T11:06:00.139Z,14.8
2017-10-30T11:07:01.762Z,14.4
2017-10-30T11:08:03.371Z,14.4
2017-10-30T11:09:04.990Z,14.3
2017-10-30T11:10:06.601Z,14.3
2017-10-30T11:11:08.222Z,14.2
2017-10-30T11:12:09.833Z,14.2
2017-10-30T11:13:11.451Z,14.0
2017-10-30T11:14:13.067Z,13.8
2017-10-30T11:15:14.683Z,13.8
2017-10-30T11:16:16.298Z,13.7
2017-10-30T11:17:17.914Z,13.8
2017-10-30T11:18:19.525Z,13.9
2017-10-30T11:19:21.145Z,13.7
2017-10-30T11:20:22.763Z,13.9
2017-10-30T11:21:24.379Z,14.0
2017-10-30T11:22:25.991Z,14.1
2017-10-30T11:23:27.612Z,14.1
2017-10-30T11:24:29.231Z,14.2
2017-10-30T11:25:30.840Z,14.2
2017-10-30T11:26:32.459Z,14.1
2017-10-30T11:27:34.077Z,14.3
2017-10-30T11:28:36.225Z,14.3
2017-10-30T11:29:37.832Z,14.1
2017-10-30T11:30:39.448Z,14.0
2017-10-30T11:31:41.072Z,14.0
2017-10-30T11:32:42.687Z,14.0
2017-10-30T11:33:44.302Z,13.8
2017-10-30T11:34:45.917Z,13.8
2017-10-30T11:35:47.539Z,13.6
2017-10-30T11:36:49.150Z,13.4
2017-10-30T11:37:50.767Z,13.3
2017-10-30T11:38:52.384Z,13.1
2017-10-30T11:39:53.996Z,12.9
2017-10-30T11:40:55.610Z,13.0
2017-10-30T11:41:57.230Z,12.9
2017-10-30T11:42:58.851Z,12.9
2017-10-30T11:44:00.465Z,13.0
2017-10-30T11:45:02.086Z,13.2
2017-10-30T11:46:03.696Z,13.4
2017-10-30T11:47:05.312Z,13.4
2017-10-30T11:48:06.935Z,13.7
2017-10-30T11:49:08.551Z,13.7
2017-10-30T11:50:10.168Z,13.8
2017-10-30T11:51:11.779Z,13.8
2017-10-30T11:52:13.400Z,13.9
2017-10-30T11:53:15.016Z,14.1
2017-10-30T11:54:16.630Z,14.4
2017-10-30T11:55:18.252Z,14.5
2017-10-30T11:56:19.866Z,14.4
2017-10-30T11:57:21.491Z,14.6
2017-10-30T11:58:23.105Z,14.9
2017-10-30T11:59:24.731Z,15.1
2017-10-30T12:00:26.336Z,15.6
2017-10-30T12:01:27.962Z,16.2
2017-10-30T12:02:29.574Z,16.3
2017-10-30T12:03:31.193Z,16.6
2017-10-30T12:04:32.810Z,16.4
2017-10-30T12:05:34.430Z,16.8
2017-10-30T12:06:36.043Z,17.1
2017-10-30T12:07:37.671Z,17.1
2017-10-30T12:08:39.277Z,17.4
2017-10-30T12:09:40.894Z,17.5
2017-10-30T12:10:42.515Z,17.9
2017-10-30T12:11:44.133Z,18.2
2017-10-30T12:12:45.752Z,17.2
2017-10-30T12:13:47.360Z,16.9
2017-10-30T12:14:48.979Z,17.4
2017-10-30T12:15:50.593Z,17.0
2017-10-30T12:16:52.210Z,16.9
2017-10-30T12:17:53.824Z,17.2
2017-10-30T12:18:55.445Z,16.8
2017-10-30T12:19:57.055Z,15.9
2017-10-30T12:20:58.674Z,15.4
2017-10-30T12:22:00.289Z,15.4
2017-10-30T12:23:01.907Z,15.4
2017-10-30T12:24:03.528Z,15.3
2017-10-30T12:25:05.137Z,15.2
2017-10-30T12:26:06.754Z,15.4
2017-10-30T12:27:08.367Z,15.9
2017-10-30T12:28:09.990Z,15.9
2017-10-30T12:29:11.624Z,15.9
2017-10-30T12:30:13.220Z,15.5
2017-10-30T12:31:14.833Z,15.3
2017-10-30T12:32:16.447Z,15.2
2017-10-30T12:33:18.066Z,15.0
2017-10-30T12:34:19.689Z,15.0
2017-10-30T12:35:21.297Z,15.0
2017-10-30T12:36:22.912Z,14.9
2017-10-30T12:37:24.533Z,14.7
2017-10-30T12:38:26.151Z,14.6
2017-10-30T12:39:27.761Z,14.6
2017-10-30T12:40:29.381Z,14.5
2017-10-30T12:41:30.995Z,14.7
2017-10-30T12:42:32.613Z,14.5
2017-10-30T12:43:34.223Z,14.5
2017-10-30T12:44:35.836Z,14.3
2017-10-30T12:45:37.454Z,14.0
2017-10-30T12:46:39.071Z,14.1
2017-10-30T12:47:40.691Z,14.1
2017-10-30T12:48:42.306Z,14.1
2017-10-30T12:49:43.919Z,14.1
2017-10-30T12:50:45.530Z,14.2
2017-10-30T12:51:47.148Z,14.2
2017-10-30T12:52:48.765Z,14.3
2017-10-30T12:53:50.377Z,14.2
2017-10-30T12:54:51.993Z,14.1
2017-10-30T12:55:53.609Z,14.1
2017-10-30T12:56:55.220Z,14.1
2017-10-30T12:57:56.838Z,14.1
2017-10-30T12:58:58.456Z,14.1
2017-10-30T13:00:00.069Z,13.9
2017-10-30T13:01:01.682Z,14.0
2017-10-30T13:02:03.296Z,14.0
2017-10-30T13:03:04.912Z,13.9
2017-10-30T13:04:06.526Z,14.1
2017-10-30T13:05:08.137Z,14.2
2017-10-30T13:06:09.756Z,14.4
2017-10-30T13:07:11.368Z,14.5
2017-10-30T13:08:12.986Z,14.7
2017-10-30T13:09:14.600Z,14.9
2017-10-30T13:10:16.216Z,14.9
2017-10-30T13:11:17.828Z,14.8
2017-10-30T13:12:19.445Z,14.8
2017-10-30T13:13:21.059Z,14.9
2017-10-30T13:14:22.673Z,14.6
2017-10-30T13:15:24.285Z,14.8
2017-10-30T13:16:25.908Z,14.6
2017-10-30T13:17:27.534Z,14.4
2017-10-30T13:18:29.138Z,14.6
2017-10-30T13:19:30.747Z,14.2
2017-10-30T13:20:32.360Z,14.0
2017-10-30T13:21:33.979Z,14.0
2017-10-30T13:22:35.597Z,13.8
2017-10-30T13:23:37.216Z,13.7
2017-10-30T13:24:38.826Z,13.6
2017-10-30T13:25:40.441Z,13.5
2017-10-30T13:26:42.052Z,13.4
2017-10-30T13:27:43.670Z,13.3
2017-10-30T13:28:45.283Z,13.3
2017-10-30T13:29:46.899Z,13.3
2017-10-30T13:30:48.513Z,13.2
2017-10-30T13:31:50.126Z,13.1
2017-10-30T13:32:51.742Z,13.1
2017-10-30T13:33:53.360Z,13.0
2017-10-30T13:34:54.969Z,13.1
2017-10-30T13:35:56.585Z,13.1
2017-10-30T13:36:58.195Z,13.0
2017-10-30T13:37:59.806Z,13.1
2017-10-30T13:39:01.419Z,13.2
2017-10-30T13:40:03.031Z,13.4
2017-10-30T13:41:04.646Z,13.4
2017-10-30T13:42:06.257Z,13.4
2017-10-30T13:43:07.879Z,13.6
2017-10-30T13:44:09.490Z,13.6
2017-10-30T13:45:11.110Z,13.5
2017-10-30T13:46:12.719Z,13.5
2017-10-30T13:47:14.334Z,13.3
2017-10-30T13:48:15.953Z,13.3
2017-10-30T13:49:17.561Z,13.3
2017-10-30T13:50:19.180Z,13.3
2017-10-30T13:51:20.814Z,13.1
2017-10-30T13:52:22.417Z,12.9
2017-10-30T13:53:24.030Z,12.9
2017-10-30T13:54:25.647Z,12.8
2017-10-30T13:55:27.258Z,12.6
2017-10-30T13:56:28.878Z,12.5